Time,TemperatureF,DewpointF,PressureIn,WindDirection,WindDirectionDegrees,WindSpeedMPH,WindSpeedGustMPH,Humidity,HourlyPrecipIn,Conditions,Clouds,dailyrainin,SolarRadiationWatts/m^2,SoftwareType,DateUTC
2013-03-25 00:01:00,68.9,61.0,29.59,West,275,3.0,10.0,76,0.00,,,0.01,0.0,meteohub,2013-03-25 04:01:00,
2013-03-25 00:02:00,68.9,61.0,29.59,West,276,3.0,10.0,76,0.00,,,0.01,0.0,meteohub,2013-03-25 04:02:00,
2013-03-25 00:04:00,68.7,60.8,29.59,WNW,294,5.0,10.0,76,0.00,,,0.01,0.0,meteohub,2013-03-25 04:04:00,
2013-03-25 00:10:00,68.7,61.2,29.59,West,275,3.0,10.0,77,0.00,,,0.01,0.0,meteohub,2013-03-25 04:10:00,
2013-03-25 00:12:00,68.7,61.2,29.59,West,271,3.0,10.0,77,0.00,,,0.01,0.0,meteohub,2013-03-25 04:12:00,
2013-03-25 00:17:00,68.5,61.0,29.59,West,274,2.0,10.0,77,0.00,,,0.01,0.0,meteohub,2013-03-25 04:17:00,
2013-03-25 00:22:00,68.4,60.8,29.59,West,274,2.0,10.0,77,0.00,,,0.01,0.0,meteohub,2013-03-25 04:22:00,
2013-03-25 00:27:00,68.4,61.2,29.60,West,279,4.0,10.0,78,0.00,,,0.01,0.0,meteohub,2013-03-25 04:27:00,
2013-03-25 00:32:00,68.2,61.0,29.60,WNW,284,3.0,12.0,78,0.00,,,0.01,0.0,meteohub,2013-03-25 04:32:00,
2013-03-25 00:37:00,68.2,61.0,29.60,WNW,283,1.0,12.0,78,0.00,,,0.01,0.0,meteohub,2013-03-25 04:37:00,
2013-03-25 00:42:00,68.0,60.8,29.60,WNW,291,1.0,12.0,78,0.00,,,0.01,0.0,meteohub,2013-03-25 04:42:00,
2013-03-25 00:47:00,67.8,61.0,29.61,WNW,290,2.0,12.0,79,0.00,,,0.01,0.0,meteohub,2013-03-25 04:47:00,
2013-03-25 00:52:00,67.6,61.0,29.61,SW,215,6.0,10.0,79,0.00,,,0.01,0.0,meteohub,2013-03-25 04:52:00,
2013-03-25 00:57:00,67.5,60.8,29.61,West,273,0.0,10.0,79,0.00,,,0.01,0.0,meteohub,2013-03-25 04:57:00,
2013-03-25 01:04:00,67.3,61.0,29.62,WSW,241,1.0,13.0,80,0.00,,,0.01,0.0,meteohub,2013-03-25 05:04:00,
2013-03-25 01:10:00,66.9,60.6,29.63,ESE,109,1.0,13.0,80,0.00,,,0.01,0.0,meteohub,2013-03-25 05:10:00,
2013-03-25 01:16:00,66.6,61.0,29.64,West,275,1.0,13.0,82,0.00,,,0.01,0.0,meteohub,2013-03-25 05:16:00,
2013-03-25 01:22:00,66.0,60.4,29.65,NW,324,0.0,4.0,82,0.00,,,0.01,0.0,meteohub,2013-03-25 05:22:00,
2013-03-25 01:27:00,65.7,60.4,29.65,ENE,74,0.0,4.0,83,0.00,,,0.01,0.0,meteohub,2013-03-25 05:27:00,
2013-03-25 01:32:00,65.3,60.1,29.65,East,84,2.0,4.0,83,0.00,,,0.01,0.0,meteohub,2013-03-25 05:32:00,
2013-03-25 01:38:00,64.6,59.4,29.65,NNW,333,1.0,4.0,83,0.00,,,0.01,0.0,meteohub,2013-03-25 05:38:00,
2013-03-25 01:44:00,63.9,57.9,29.66,North,355,0.0,10.0,81,0.00,,,0.01,0.0,meteohub,2013-03-25 05:44:00,
2013-03-25 01:50:00,63.3,55.9,29.66,West,263,1.0,12.0,77,0.00,,,0.01,0.0,meteohub,2013-03-25 05:50:00,
2013-03-25 01:57:00,63.0,54.1,29.66,NW,323,1.0,12.0,73,0.00,,,0.01,0.0,meteohub,2013-03-25 05:57:00,
2013-03-25 02:02:00,62.8,52.9,29.67,West,272,5.0,10.0,70,0.00,,,0.01,0.0,meteohub,2013-03-25 06:02:00,
2013-03-25 02:07:00,62.6,51.1,29.68,West,264,6.0,10.0,66,0.00,,,0.01,0.0,meteohub,2013-03-25 06:07:00,
2013-03-25 02:12:00,62.2,45.9,29.68,West,281,1.0,10.0,55,0.00,,,0.01,0.0,meteohub,2013-03-25 06:12:00,
2013-03-25 02:18:00,61.9,41.9,29.68,NW,306,2.0,13.0,48,0.00,,,0.01,0.0,meteohub,2013-03-25 06:18:00,
2013-03-25 02:25:00,61.5,39.4,29.68,West,278,6.0,13.0,44,0.00,,,0.01,0.0,meteohub,2013-03-25 06:25:00,
2013-03-25 02:31:00,61.0,40.1,29.68,WNW,292,2.0,12.0,46,0.00,,,0.01,0.0,meteohub,2013-03-25 06:31:00,
2013-03-25 02:37:00,60.4,40.1,29.68,WNW,302,2.0,12.0,47,0.00,,,0.01,0.0,meteohub,2013-03-25 06:37:00,
2013-03-25 02:43:00,59.7,42.6,29.70,West,260,6.0,13.0,53,0.00,,,0.01,0.0,meteohub,2013-03-25 06:43:00,
2013-03-25 02:50:00,59.0,42.8,29.70,WNW,303,5.0,13.0,55,0.00,,,0.01,0.0,meteohub,2013-03-25 06:50:00,
2013-03-25 02:56:00,58.3,43.5,29.70,WNW,284,1.0,14.0,58,0.00,,,0.01,0.0,meteohub,2013-03-25 06:56:00,
2013-03-25 03:02:00,57.6,43.0,29.70,West,277,4.0,14.0,58,0.00,,,0.01,0.0,meteohub,2013-03-25 07:02:00,
2013-03-25 03:07:00,57.2,43.0,29.70,West,277,2.0,14.0,59,0.00,,,0.01,0.0,meteohub,2013-03-25 07:07:00,
2013-03-25 03:12:00,56.7,43.0,29.71,WNW,284,1.0,13.0,60,0.00,,,0.01,0.0,meteohub,2013-03-25 07:12:00,
2013-03-25 03:18:00,56.3,43.0,29.71,West,279,6.0,13.0,61,0.00,,,0.01,0.0,meteohub,2013-03-25 07:18:00,
2013-03-25 03:24:00,55.9,43.2,29.71,West,278,1.0,9.0,62,0.00,,,0.01,0.0,meteohub,2013-03-25 07:24:00,
2013-03-25 03:30:00,55.6,43.2,29.71,WNW,286,1.0,9.0,63,0.00,,,0.01,0.0,meteohub,2013-03-25 07:30:00,
2013-03-25 03:36:00,55.0,43.5,29.71,NW,305,6.0,10.0,65,0.00,,,0.01,0.0,meteohub,2013-03-25 07:36:00,
2013-03-25 03:42:00,54.9,43.3,29.71,West,277,1.0,10.0,65,0.00,,,0.01,0.0,meteohub,2013-03-25 07:42:00,
2013-03-25 03:47:00,54.7,43.5,29.71,NNW,331,0.0,10.0,66,0.00,,,0.01,0.0,meteohub,2013-03-25 07:47:00,
2013-03-25 03:52:00,54.5,43.3,29.72,West,273,2.0,9.0,66,0.00,,,0.01,0.0,meteohub,2013-03-25 07:52:00,
2013-03-25 03:58:00,54.1,43.3,29.72,WSW,251,0.0,6.0,67,0.00,,,0.01,0.0,meteohub,2013-03-25 07:58:00,
2013-03-25 04:04:00,54.0,43.7,29.72,WNW,283,3.0,6.0,68,0.00,,,0.01,0.0,meteohub,2013-03-25 08:04:00,
2013-03-25 04:11:00,53.8,43.9,29.72,WNW,283,1.0,6.0,69,0.00,,,0.01,0.0,meteohub,2013-03-25 08:11:00,
2013-03-25 04:17:00,53.4,43.9,29.72,WNW,285,0.0,5.0,70,0.00,,,0.01,0.0,meteohub,2013-03-25 08:17:00,
2013-03-25 04:22:00,53.2,43.7,29.72,West,276,3.0,5.0,70,0.00,,,0.01,0.0,meteohub,2013-03-25 08:22:00,
2013-03-25 04:27:00,53.1,43.9,29.73,West,276,1.0,5.0,71,0.00,,,0.01,0.0,meteohub,2013-03-25 08:27:00,
2013-03-25 04:32:00,52.9,44.1,29.73,West,278,0.0,6.0,72,0.00,,,0.01,0.0,meteohub,2013-03-25 08:32:00,
2013-03-25 04:37:00,52.7,43.9,29.73,WNW,288,2.0,6.0,72,0.00,,,0.01,0.0,meteohub,2013-03-25 08:37:00,
2013-03-25 04:42:00,52.5,43.3,29.73,WNW,292,1.0,9.0,71,0.00,,,0.01,0.0,meteohub,2013-03-25 08:42:00,
2013-03-25 04:47:00,52.3,42.8,29.73,West,274,0.0,9.0,70,0.00,,,0.01,0.0,meteohub,2013-03-25 08:47:00,
2013-03-25 04:54:00,52.3,42.8,29.74,WNW,285,0.0,9.0,70,0.00,,,0.01,0.0,meteohub,2013-03-25 08:54:00,
2013-03-25 05:00:00,52.2,42.6,29.73,NNW,348,3.0,9.0,70,0.00,,,0.01,0.0,meteohub,2013-03-25 09:00:00,
2013-03-25 05:07:00,52.0,42.1,29.74,NW,308,5.0,9.0,69,0.00,,,0.01,0.0,meteohub,2013-03-25 09:07:00,
2013-03-25 05:12:00,51.8,41.5,29.74,NNW,327,2.0,9.0,68,0.00,,,0.01,0.0,meteohub,2013-03-25 09:12:00,
2013-03-25 05:17:00,51.6,41.0,29.74,West,261,4.0,12.0,67,0.00,,,0.01,0.0,meteohub,2013-03-25 09:17:00,
2013-03-25 05:22:00,51.6,41.0,29.74,WNW,286,4.0,12.0,67,0.00,,,0.01,0.0,meteohub,2013-03-25 09:22:00,
2013-03-25 05:27:00,51.4,40.5,29.75,WNW,284,1.0,12.0,66,0.00,,,0.01,0.0,meteohub,2013-03-25 09:27:00,
2013-03-25 05:32:00,51.4,40.5,29.75,NW,304,1.0,12.0,66,0.00,,,0.01,0.0,meteohub,2013-03-25 09:32:00,
2013-03-25 05:38:00,51.3,40.6,29.75,WNW,302,3.0,6.0,67,0.00,,,0.01,0.0,meteohub,2013-03-25 09:38:00,
2013-03-25 05:44:00,51.1,40.5,29.75,WNW,284,3.0,6.0,67,0.00,,,0.01,0.0,meteohub,2013-03-25 09:44:00,
2013-03-25 05:51:00,50.7,40.5,29.76,WSW,257,6.0,6.0,68,0.00,,,0.01,0.0,meteohub,2013-03-25 09:51:00,
2013-03-25 05:57:00,50.5,40.5,29.76,West,277,3.0,12.0,68,0.00,,,0.01,0.0,meteohub,2013-03-25 09:57:00,
2013-03-25 06:03:00,50.4,40.6,29.76,West,277,2.0,12.0,69,0.00,,,0.01,0.0,meteohub,2013-03-25 10:03:00,
2013-03-25 06:09:00,50.2,40.8,29.76,West,276,3.0,12.0,70,0.00,,,0.01,0.0,meteohub,2013-03-25 10:09:00,
2013-03-25 06:15:00,49.8,40.8,29.76,West,266,2.0,9.0,71,0.00,,,0.01,0.0,meteohub,2013-03-25 10:15:00,
2013-03-25 06:22:00,49.6,40.6,29.77,WNW,283,4.0,9.0,71,0.00,,,0.01,0.0,meteohub,2013-03-25 10:22:00,
2013-03-25 06:27:00,49.5,40.5,29.77,West,276,5.0,9.0,71,0.00,,,0.01,0.0,meteohub,2013-03-25 10:27:00,
2013-03-25 06:32:00,49.5,40.8,29.78,West,275,3.0,9.0,72,0.00,,,0.01,0.0,meteohub,2013-03-25 10:32:00,
2013-03-25 06:37:00,49.3,40.6,29.78,WNW,296,0.0,9.0,72,0.00,,,0.01,0.0,meteohub,2013-03-25 10:37:00,
2013-03-25 06:43:00,49.1,40.8,29.79,WNW,292,0.0,9.0,73,0.00,,,0.01,0.0,meteohub,2013-03-25 10:43:00,
2013-03-25 06:50:00,48.9,40.6,29.80,West,273,2.0,9.0,73,0.00,,,0.01,0.0,meteohub,2013-03-25 10:50:00,
2013-03-25 06:56:00,48.6,40.3,29.80,WSW,255,0.0,9.0,73,0.00,,,0.01,0.0,meteohub,2013-03-25 10:56:00,
2013-03-25 07:02:00,48.4,40.1,29.80,West,277,0.0,11.0,73,0.00,,,0.01,0.0,meteohub,2013-03-25 11:02:00,
2013-03-25 07:07:00,48.0,39.7,29.81,WNW,290,1.0,11.0,73,0.00,,,0.01,0.0,meteohub,2013-03-25 11:07:00,
2013-03-25 07:12:00,47.8,39.9,29.81,West,275,1.0,11.0,74,0.00,,,0.01,0.0,meteohub,2013-03-25 11:12:00,
2013-03-25 07:18:00,47.7,40.1,29.81,WNW,284,0.0,11.0,75,0.00,,,0.01,0.0,meteohub,2013-03-25 11:18:00,
2013-03-25 07:24:00,47.3,39.7,29.82,West,281,0.0,11.0,75,0.00,,,0.01,0.0,meteohub,2013-03-25 11:24:00,
2013-03-25 07:31:00,46.9,39.7,29.82,West,279,2.0,11.0,76,0.00,,,0.01,7.0,meteohub,2013-03-25 11:31:00,
2013-03-25 07:37:00,46.8,39.6,29.82,West,280,2.0,11.0,76,0.00,,,0.01,11.0,meteohub,2013-03-25 11:37:00,
2013-03-25 07:42:00,46.6,39.4,29.83,West,276,2.0,6.0,76,0.00,,,0.01,14.0,meteohub,2013-03-25 11:42:00,
2013-03-25 07:47:00,46.2,38.5,29.83,NNW,330,6.0,6.0,74,0.00,,,0.01,18.0,meteohub,2013-03-25 11:47:00,
2013-03-25 07:52:00,46.0,38.3,29.83,West,280,3.0,6.0,74,0.00,,,0.01,21.0,meteohub,2013-03-25 11:52:00,
2013-03-25 07:58:00,45.7,37.2,29.84,West,274,0.0,12.0,72,0.00,,,0.01,25.0,meteohub,2013-03-25 11:58:00,
2013-03-25 08:05:00,45.7,37.6,29.85,West,277,3.0,12.0,73,0.00,,,0.01,28.0,meteohub,2013-03-25 12:05:00,
2013-03-25 08:11:00,45.5,37.4,29.85,NNW,343,4.0,12.0,73,0.00,,,0.01,30.0,meteohub,2013-03-25 12:11:00,
2013-03-25 08:17:00,45.3,36.5,29.85,NW,323,4.0,12.0,71,0.00,,,0.01,49.0,meteohub,2013-03-25 12:17:00,
2013-03-25 08:22:00,45.5,37.0,29.86,West,273,1.0,17.0,72,0.00,,,0.01,56.0,meteohub,2013-03-25 12:22:00,
2013-03-25 08:27:00,45.5,36.7,29.86,West,275,0.0,17.0,71,0.00,,,0.01,46.0,meteohub,2013-03-25 12:27:00,
2013-03-25 08:32:00,45.5,36.0,29.86,West,276,0.0,17.0,69,0.00,,,0.01,46.0,meteohub,2013-03-25 12:32:00,
2013-03-25 08:37:00,45.5,36.0,29.86,WNW,288,5.0,17.0,69,0.00,,,0.01,46.0,meteohub,2013-03-25 12:37:00,
2013-03-25 08:42:00,45.7,35.4,29.86,WNW,291,1.0,12.0,67,0.00,,,0.01,51.0,meteohub,2013-03-25 12:42:00,
2013-03-25 08:48:00,45.7,35.8,29.86,WNW,290,1.0,12.0,68,0.00,,,0.01,70.0,meteohub,2013-03-25 12:48:00,
2013-03-25 08:55:00,45.9,35.1,29.87,NW,322,2.0,12.0,66,0.00,,,0.01,69.0,meteohub,2013-03-25 12:55:00,
2013-03-25 09:01:00,46.0,34.5,29.87,WNW,284,1.0,12.0,64,0.00,,,0.01,95.0,meteohub,2013-03-25 13:01:00,
2013-03-25 09:07:00,46.6,35.4,29.88,WNW,295,4.0,12.0,65,0.00,,,0.01,123.0,meteohub,2013-03-25 13:07:00,
2013-03-25 09:14:00,46.9,35.1,29.88,West,276,1.0,12.0,63,0.00,,,0.01,141.0,meteohub,2013-03-25 13:14:00,
2013-03-25 09:20:00,47.3,35.4,29.88,WSW,246,7.0,14.0,63,0.00,,,0.01,243.0,meteohub,2013-03-25 13:20:00,
2013-03-25 09:26:00,47.7,35.6,29.87,West,276,1.0,14.0,63,0.00,,,0.01,334.0,meteohub,2013-03-25 13:26:00,
2013-03-25 09:32:00,48.2,35.8,29.88,West,277,4.0,14.0,62,0.00,,,0.01,320.0,meteohub,2013-03-25 13:32:00,
2013-03-25 09:37:00,48.7,36.3,29.88,West,271,1.0,14.0,62,0.00,,,0.01,381.0,meteohub,2013-03-25 13:37:00,
2013-03-25 09:42:00,48.6,36.1,29.88,West,279,6.0,11.0,62,0.00,,,0.01,357.0,meteohub,2013-03-25 13:42:00,
2013-03-25 09:47:00,48.9,35.6,29.88,West,277,10.0,11.0,60,0.00,,,0.01,348.0,meteohub,2013-03-25 13:47:00,
2013-03-25 09:52:00,48.9,35.6,29.87,West,279,1.0,11.0,60,0.00,,,0.01,309.0,meteohub,2013-03-25 13:52:00,
2013-03-25 09:57:00,49.5,36.1,29.87,West,259,8.0,11.0,60,0.00,,,0.01,357.0,meteohub,2013-03-25 13:57:00,
2013-03-25 10:03:00,49.6,37.2,29.88,WNW,283,7.0,12.0,62,0.00,,,0.01,220.0,meteohub,2013-03-25 14:03:00,
2013-03-25 10:10:00,50.2,36.9,29.87,West,275,4.0,12.0,60,0.00,,,0.01,269.0,meteohub,2013-03-25 14:10:00,
2013-03-25 10:16:00,50.4,37.4,29.87,West,278,4.0,12.0,61,0.00,,,0.01,204.0,meteohub,2013-03-25 14:16:00,
2013-03-25 10:22:00,50.5,36.0,29.88,WSW,251,2.0,15.0,57,0.00,,,0.01,327.0,meteohub,2013-03-25 14:22:00,
2013-03-25 10:27:00,51.3,38.3,29.87,West,278,4.0,15.0,61,0.00,,,0.01,380.0,meteohub,2013-03-25 14:27:00,
2013-03-25 10:35:00,52.0,37.6,29.88,West,271,6.0,12.0,58,0.00,,,0.01,287.0,meteohub,2013-03-25 14:35:00,
2013-03-25 10:41:00,52.0,37.6,29.87,West,275,9.0,12.0,58,0.00,,,0.01,454.0,meteohub,2013-03-25 14:41:00,
2013-03-25 10:47:00,52.2,37.4,29.88,West,278,5.0,12.0,57,0.00,,,0.01,510.0,meteohub,2013-03-25 14:47:00,
2013-03-25 10:52:00,52.3,37.9,29.88,West,276,7.0,12.0,58,0.00,,,0.01,499.0,meteohub,2013-03-25 14:52:00,
2013-03-25 10:57:00,52.5,37.8,29.88,WSW,250,11.0,15.0,57,0.00,,,0.01,696.0,meteohub,2013-03-25 14:57:00,
2013-03-25 11:02:00,53.2,38.5,29.88,West,263,10.0,15.0,57,0.00,,,0.01,710.0,meteohub,2013-03-25 15:02:00,
2013-03-25 11:09:00,53.4,38.1,29.88,WNW,286,6.0,15.0,56,0.00,,,0.01,733.0,meteohub,2013-03-25 15:09:00,
2013-03-25 11:15:00,54.3,39.4,29.88,WNW,283,8.0,15.0,57,0.00,,,0.01,747.0,meteohub,2013-03-25 15:15:00,
2013-03-25 11:22:00,54.7,37.9,29.88,North,5,6.0,12.0,53,0.00,,,0.01,765.0,meteohub,2013-03-25 15:22:00,
2013-03-25 11:27:00,54.9,39.0,29.88,WNW,292,10.0,12.0,55,0.00,,,0.01,773.0,meteohub,2013-03-25 15:27:00,
2013-03-25 11:34:00,55.0,37.8,29.88,West,279,3.0,14.0,52,0.00,,,0.01,793.0,meteohub,2013-03-25 15:34:00,
2013-03-25 11:40:00,55.6,37.8,29.88,West,263,10.0,14.0,51,0.00,,,0.01,807.0,meteohub,2013-03-25 15:40:00,
2013-03-25 11:46:00,55.9,38.5,29.88,West,277,4.0,14.0,52,0.00,,,0.01,821.0,meteohub,2013-03-25 15:46:00,
2013-03-25 11:52:00,56.1,37.8,29.88,SW,229,10.0,14.0,50,0.00,,,0.01,833.0,meteohub,2013-03-25 15:52:00,
2013-03-25 11:57:00,55.9,38.5,29.88,West,268,8.0,17.0,52,0.00,,,0.01,838.0,meteohub,2013-03-25 15:57:00,
2013-03-25 12:02:00,55.6,37.8,29.89,West,280,1.0,17.0,51,0.00,,,0.01,849.0,meteohub,2013-03-25 16:02:00,
2013-03-25 12:08:00,56.8,38.5,29.88,West,269,2.0,17.0,50,0.00,,,0.01,858.0,meteohub,2013-03-25 16:08:00,
2013-03-25 12:14:00,57.0,37.6,29.88,West,281,6.0,16.0,48,0.00,,,0.01,865.0,meteohub,2013-03-25 16:14:00,
2013-03-25 12:20:00,57.7,37.0,29.88,WNW,290,7.0,16.0,46,0.00,,,0.01,881.0,meteohub,2013-03-25 16:20:00,
2013-03-25 12:27:00,57.6,36.9,29.88,NW,321,0.0,16.0,46,0.00,,,0.01,891.0,meteohub,2013-03-25 16:27:00,
2013-03-25 12:32:00,58.5,38.3,29.88,NW,306,4.0,13.0,47,0.00,,,0.01,895.0,meteohub,2013-03-25 16:32:00,
2013-03-25 12:39:00,58.5,37.2,29.88,NW,309,3.0,13.0,45,0.00,,,0.01,900.0,meteohub,2013-03-25 16:39:00,
2013-03-25 12:45:00,58.8,34.0,29.88,WNW,284,9.0,13.0,39,0.00,,,0.01,909.0,meteohub,2013-03-25 16:45:00,
2013-03-25 12:52:00,59.2,37.2,29.88,West,267,7.0,12.0,44,0.00,,,0.01,921.0,meteohub,2013-03-25 16:52:00,
2013-03-25 12:57:00,59.2,38.5,29.88,WNW,300,4.0,12.0,46,0.00,,,0.01,918.0,meteohub,2013-03-25 16:57:00,
2013-03-25 13:02:00,59.4,36.9,29.87,NW,318,6.0,16.0,43,0.00,,,0.01,926.0,meteohub,2013-03-25 17:02:00,
2013-03-25 13:07:00,59.5,35.2,29.88,WNW,298,3.0,16.0,40,0.00,,,0.01,925.0,meteohub,2013-03-25 17:07:00,
2013-03-25 13:12:00,60.1,35.6,29.88,West,281,6.0,16.0,40,0.00,,,0.01,930.0,meteohub,2013-03-25 17:12:00,
2013-03-25 13:20:00,59.5,35.2,29.87,West,267,8.0,16.0,40,0.00,,,0.01,930.0,meteohub,2013-03-25 17:20:00,
2013-03-25 13:26:00,60.1,32.4,29.87,WNW,288,2.0,16.0,35,0.00,,,0.01,932.0,meteohub,2013-03-25 17:26:00,
2013-03-25 13:32:00,60.4,33.4,29.87,West,271,10.0,15.0,36,0.00,,,0.01,940.0,meteohub,2013-03-25 17:32:00,
2013-03-25 13:37:00,60.6,35.6,29.87,West,280,2.0,15.0,39,0.00,,,0.01,937.0,meteohub,2013-03-25 17:37:00,
2013-03-25 13:42:00,61.0,37.8,29.87,WNW,282,6.0,18.0,42,0.00,,,0.01,939.0,meteohub,2013-03-25 17:42:00,
2013-03-25 13:48:00,60.8,32.9,29.87,West,279,7.0,18.0,35,0.00,,,0.01,939.0,meteohub,2013-03-25 17:48:00,
2013-03-25 13:54:00,60.4,32.7,29.87,WSW,255,3.0,17.0,35,0.00,,,0.01,939.0,meteohub,2013-03-25 17:54:00,
2013-03-25 14:00:00,60.4,34.0,29.86,WNW,285,5.0,17.0,37,0.00,,,0.01,932.0,meteohub,2013-03-25 18:00:00,
2013-03-25 14:07:00,60.8,32.9,29.86,WNW,300,4.0,17.0,35,0.00,,,0.01,935.0,meteohub,2013-03-25 18:07:00,
2013-03-25 14:12:00,61.5,32.9,29.86,West,279,4.0,17.0,34,0.00,,,0.01,928.0,meteohub,2013-03-25 18:12:00,
2013-03-25 14:17:00,61.3,32.7,29.86,West,281,6.0,16.0,34,0.00,,,0.01,925.0,meteohub,2013-03-25 18:17:00,
2013-03-25 14:22:00,61.0,30.9,29.86,WNW,285,0.0,16.0,32,0.00,,,0.01,916.0,meteohub,2013-03-25 18:22:00,
2013-03-25 14:27:00,60.6,31.3,29.86,WNW,290,12.0,16.0,33,0.00,,,0.01,914.0,meteohub,2013-03-25 18:27:00,
2013-03-25 14:32:00,59.9,30.7,29.86,WNW,298,4.0,16.0,33,0.00,,,0.01,907.0,meteohub,2013-03-25 18:32:00,
2013-03-25 14:38:00,61.2,33.3,29.86,West,276,3.0,16.0,35,0.00,,,0.01,902.0,meteohub,2013-03-25 18:38:00,
2013-03-25 14:44:00,61.0,30.2,29.86,WNW,302,0.0,16.0,31,0.00,,,0.01,895.0,meteohub,2013-03-25 18:44:00,
2013-03-25 14:50:00,61.3,33.4,29.86,West,259,6.0,13.0,35,0.00,,,0.01,882.0,meteohub,2013-03-25 18:50:00,
2013-03-25 14:56:00,61.2,31.8,29.86,North,355,4.0,13.0,33,0.00,,,0.01,877.0,meteohub,2013-03-25 18:56:00,
2013-03-25 15:02:00,61.0,30.2,29.86,NW,315,10.0,12.0,31,0.00,,,0.01,865.0,meteohub,2013-03-25 19:02:00,
2013-03-25 15:09:00,61.2,31.8,29.86,West,275,3.0,12.0,33,0.00,,,0.01,854.0,meteohub,2013-03-25 19:09:00,
2013-03-25 15:15:00,61.9,34.0,29.86,West,276,2.0,15.0,35,0.00,,,0.01,844.0,meteohub,2013-03-25 19:15:00,
2013-03-25 15:21:00,61.3,34.9,29.86,West,278,6.0,15.0,37,0.00,,,0.01,831.0,meteohub,2013-03-25 19:21:00,
2013-03-25 15:27:00,61.7,37.2,29.86,WNW,297,1.0,15.0,40,0.00,,,0.01,823.0,meteohub,2013-03-25 19:27:00,
2013-03-25 15:33:00,61.9,34.0,29.86,NNW,344,4.0,17.0,35,0.00,,,0.01,803.0,meteohub,2013-03-25 19:33:00,
2013-03-25 15:40:00,61.9,34.7,29.85,NW,325,4.0,12.0,36,0.00,,,0.01,789.0,meteohub,2013-03-25 19:40:00,
2013-03-25 15:46:00,61.9,33.3,29.85,West,276,3.0,12.0,34,0.00,,,0.01,777.0,meteohub,2013-03-25 19:46:00,
2013-03-25 15:52:00,61.9,34.0,29.85,West,276,8.0,14.0,35,0.00,,,0.01,761.0,meteohub,2013-03-25 19:52:00,
2013-03-25 15:58:00,61.9,33.3,29.85,WNW,290,4.0,14.0,34,0.00,,,0.01,744.0,meteohub,2013-03-25 19:58:00,
2013-03-25 16:05:00,61.5,34.3,29.84,West,277,1.0,14.0,36,0.00,,,0.01,728.0,meteohub,2013-03-25 20:05:00,
2013-03-25 16:11:00,61.9,36.0,29.85,West,269,6.0,14.0,38,0.00,,,0.01,712.0,meteohub,2013-03-25 20:11:00,
2013-03-25 16:17:00,61.7,35.2,29.84,NW,306,2.0,14.0,37,0.00,,,0.01,694.0,meteohub,2013-03-25 20:17:00,
2013-03-25 16:23:00,61.9,36.0,29.84,WSW,252,6.0,14.0,38,0.00,,,0.01,677.0,meteohub,2013-03-25 20:23:00,
2013-03-25 16:29:00,62.1,36.1,29.85,West,276,7.0,14.0,38,0.00,,,0.01,656.0,meteohub,2013-03-25 20:29:00,
2013-03-25 16:35:00,62.1,36.1,29.84,West,273,7.0,13.0,38,0.00,,,0.01,642.0,meteohub,2013-03-25 20:35:00,
2013-03-25 16:42:00,61.9,36.7,29.85,NNW,342,3.0,13.0,39,0.00,,,0.01,624.0,meteohub,2013-03-25 20:42:00,
2013-03-25 16:47:00,61.3,34.9,29.85,West,277,6.0,13.0,37,0.00,,,0.01,605.0,meteohub,2013-03-25 20:47:00,
2013-03-25 16:52:00,61.3,34.9,29.85,NNW,344,4.0,15.0,37,0.00,,,0.01,587.0,meteohub,2013-03-25 20:52:00,
2013-03-25 16:57:00,61.3,33.4,29.85,NW,306,5.0,15.0,35,0.00,,,0.01,570.0,meteohub,2013-03-25 20:57:00,
2013-03-25 17:03:00,61.0,33.8,29.85,WNW,292,2.0,14.0,36,0.00,,,0.01,550.0,meteohub,2013-03-25 21:03:00,
2013-03-25 17:10:00,60.6,34.2,29.85,West,275,6.0,14.0,37,0.00,,,0.01,531.0,meteohub,2013-03-25 21:10:00,
2013-03-25 17:16:00,60.8,34.3,29.86,West,277,8.0,14.0,37,0.00,,,0.01,506.0,meteohub,2013-03-25 21:16:00,
2013-03-25 17:22:00,60.6,33.4,29.85,WNW,294,3.0,14.0,36,0.00,,,0.01,489.0,meteohub,2013-03-25 21:22:00,
2013-03-25 17:27:00,60.6,32.9,29.86,North,355,5.0,14.0,35,0.00,,,0.01,468.0,meteohub,2013-03-25 21:27:00,
2013-03-25 17:35:00,60.3,35.2,29.86,West,275,5.0,11.0,39,0.00,,,0.01,439.0,meteohub,2013-03-25 21:35:00,
2013-03-25 17:41:00,60.4,33.4,29.86,West,273,2.0,14.0,36,0.00,,,0.01,417.0,meteohub,2013-03-25 21:41:00,
2013-03-25 17:47:00,60.4,33.4,29.86,WNW,299,4.0,14.0,36,0.00,,,0.01,397.0,meteohub,2013-03-25 21:47:00,
2013-03-25 17:52:00,60.4,34.0,29.86,West,271,2.0,13.0,37,0.00,,,0.01,376.0,meteohub,2013-03-25 21:52:00,
2013-03-25 17:57:00,60.4,33.4,29.86,West,267,7.0,13.0,36,0.00,,,0.01,359.0,meteohub,2013-03-25 21:57:00,
2013-03-25 18:02:00,60.3,33.3,29.86,NNW,337,0.0,13.0,36,0.00,,,0.01,339.0,meteohub,2013-03-25 22:02:00,
2013-03-25 18:09:00,60.1,33.1,29.86,WNW,283,1.0,13.0,36,0.00,,,0.01,309.0,meteohub,2013-03-25 22:09:00,
2013-03-25 18:15:00,59.9,32.2,29.86,WSW,239,1.0,11.0,35,0.00,,,0.01,287.0,meteohub,2013-03-25 22:15:00,
2013-03-25 18:21:00,59.7,32.7,29.86,NW,305,4.0,11.0,36,0.00,,,0.01,260.0,meteohub,2013-03-25 22:21:00,
2013-03-25 18:27:00,59.7,32.0,29.87,WNW,293,1.0,11.0,35,0.00,,,0.01,241.0,meteohub,2013-03-25 22:27:00,
2013-03-25 18:33:00,59.5,31.8,29.87,WNW,298,7.0,10.0,35,0.00,,,0.01,220.0,meteohub,2013-03-25 22:33:00,
2013-03-25 18:40:00,59.2,30.7,29.87,WNW,302,2.0,10.0,34,0.00,,,0.01,188.0,meteohub,2013-03-25 22:40:00,
2013-03-25 18:46:00,58.6,31.1,29.88,West,277,4.0,10.0,35,0.00,,,0.01,155.0,meteohub,2013-03-25 22:46:00,
2013-03-25 18:52:00,58.5,30.9,29.88,WNW,294,4.0,11.0,35,0.00,,,0.01,104.0,meteohub,2013-03-25 22:52:00,
2013-03-25 18:57:00,58.1,29.1,29.88,WNW,282,1.0,11.0,33,0.00,,,0.01,47.0,meteohub,2013-03-25 22:57:00,
2013-03-25 19:02:00,57.7,29.5,29.88,West,261,0.0,14.0,34,0.00,,,0.01,42.0,meteohub,2013-03-25 23:02:00,
2013-03-25 19:08:00,57.4,30.0,29.88,WNW,288,1.0,14.0,35,0.00,,,0.01,35.0,meteohub,2013-03-25 23:08:00,
2013-03-25 19:14:00,56.8,28.0,29.89,NW,314,1.0,14.0,33,0.00,,,0.01,28.0,meteohub,2013-03-25 23:14:00,
2013-03-25 19:20:00,56.5,29.1,29.89,West,277,4.0,14.0,35,0.00,,,0.01,21.0,meteohub,2013-03-25 23:20:00,
2013-03-25 19:26:00,55.9,29.3,29.90,West,273,2.0,14.0,36,0.00,,,0.01,16.0,meteohub,2013-03-25 23:26:00,
2013-03-25 19:32:00,55.8,29.8,29.90,West,276,1.0,12.0,37,0.00,,,0.01,12.0,meteohub,2013-03-25 23:32:00,
2013-03-25 19:37:00,55.4,29.5,29.90,West,275,3.0,12.0,37,0.00,,,0.01,9.0,meteohub,2013-03-25 23:37:00,
2013-03-25 19:42:00,55.0,29.3,29.91,SW,219,0.0,7.0,37,0.00,,,0.01,5.0,meteohub,2013-03-25 23:42:00,
2013-03-25 19:47:00,54.9,28.4,29.91,West,273,3.0,7.0,36,0.00,,,0.01,0.0,meteohub,2013-03-25 23:47:00,
2013-03-25 19:54:00,54.3,27.9,29.91,West,265,2.0,11.0,36,0.00,,,0.01,0.0,meteohub,2013-03-25 23:54:00,
2013-03-25 20:04:00,54.0,28.2,29.92,West,280,3.0,10.0,37,0.00,,,0.01,0.0,meteohub,2013-03-26 00:04:00,
2013-03-25 20:10:00,53.8,29.5,29.92,West,280,0.0,10.0,39,0.00,,,0.00,0.0,meteohub,2013-03-26 00:10:00,
2013-03-25 20:16:00,53.4,29.7,29.93,WNW,284,0.0,10.0,40,0.00,,,0.00,0.0,meteohub,2013-03-26 00:16:00,
2013-03-25 20:22:00,53.1,30.0,29.93,West,273,0.0,10.0,41,0.00,,,0.00,0.0,meteohub,2013-03-26 00:22:00,
2013-03-25 20:27:00,52.9,29.3,29.93,West,275,0.0,10.0,40,0.00,,,0.00,0.0,meteohub,2013-03-26 00:27:00,
2013-03-25 20:32:00,52.5,30.7,29.93,West,275,1.0,4.0,43,0.00,,,0.00,0.0,meteohub,2013-03-26 00:32:00,
2013-03-25 20:38:00,52.3,30.6,29.94,West,275,1.0,4.0,43,0.00,,,0.00,0.0,meteohub,2013-03-26 00:38:00,
2013-03-25 20:44:00,52.0,30.7,29.94,West,275,1.0,3.0,44,0.00,,,0.00,0.0,meteohub,2013-03-26 00:44:00,
2013-03-25 20:50:00,51.4,30.7,29.95,West,275,0.0,1.0,45,0.00,,,0.00,0.0,meteohub,2013-03-26 00:50:00,
2013-03-25 20:56:00,51.1,29.8,29.95,West,275,0.0,1.0,44,0.00,,,0.00,0.0,meteohub,2013-03-26 00:56:00,
2013-03-25 21:02:00,50.7,30.2,29.96,West,273,0.0,2.0,45,0.00,,,0.00,0.0,meteohub,2013-03-26 01:02:00,
2013-03-25 21:07:00,50.5,30.6,29.96,West,273,0.0,2.0,46,0.00,,,0.00,0.0,meteohub,2013-03-26 01:07:00,
2013-03-25 21:12:00,50.4,30.4,29.96,West,264,1.0,2.0,46,0.00,,,0.00,0.0,meteohub,2013-03-26 01:12:00,
2013-03-25 21:17:00,50.0,30.0,29.96,West,264,1.0,2.0,46,0.00,,,0.00,0.0,meteohub,2013-03-26 01:17:00,
2013-03-25 21:22:00,49.6,29.7,29.96,West,264,2.0,2.0,46,0.00,,,0.00,0.0,meteohub,2013-03-26 01:22:00,
2013-03-25 21:27:00,49.6,29.7,29.96,West,269,1.0,2.0,46,0.00,,,0.00,0.0,meteohub,2013-03-26 01:27:00,
2013-03-25 21:34:00,49.5,29.5,29.97,West,269,0.0,4.0,46,0.00,,,0.00,0.0,meteohub,2013-03-26 01:34:00,
2013-03-25 21:40:00,49.3,28.8,29.97,West,269,0.0,4.0,45,0.00,,,0.00,0.0,meteohub,2013-03-26 01:40:00,
2013-03-25 21:46:00,48.9,29.7,29.97,West,269,0.0,4.0,47,0.00,,,0.00,0.0,meteohub,2013-03-26 01:46:00,
2013-03-25 21:52:00,48.9,29.7,29.97,West,269,1.0,2.0,47,0.00,,,0.00,0.0,meteohub,2013-03-26 01:52:00,
2013-03-25 21:57:00,48.7,29.5,29.97,West,269,0.0,2.0,47,0.00,,,0.00,0.0,meteohub,2013-03-26 01:57:00,
2013-03-25 22:02:00,48.6,29.8,29.98,West,269,3.0,3.0,48,0.00,,,0.00,0.0,meteohub,2013-03-26 02:02:00,
2013-03-25 22:08:00,48.4,30.0,29.98,West,269,0.0,3.0,49,0.00,,,0.00,0.0,meteohub,2013-03-26 02:08:00,
2013-03-25 22:14:00,48.2,28.9,29.98,West,277,1.0,3.0,47,0.00,,,0.00,0.0,meteohub,2013-03-26 02:14:00,
2013-03-25 22:20:00,48.0,28.8,29.99,WNW,283,2.0,3.0,47,0.00,,,0.00,0.0,meteohub,2013-03-26 02:20:00,
2013-03-25 22:26:00,48.0,28.8,29.99,WNW,283,0.0,3.0,47,0.00,,,0.00,0.0,meteohub,2013-03-26 02:26:00,
2013-03-25 22:32:00,48.0,29.3,29.99,WNW,283,0.0,6.0,48,0.00,,,0.00,0.0,meteohub,2013-03-26 02:32:00,
2013-03-25 22:37:00,48.0,28.8,30.00,WNW,283,0.0,6.0,47,0.00,,,0.00,0.0,meteohub,2013-03-26 02:37:00,
2013-03-25 22:42:00,48.0,29.8,30.00,WNW,283,1.0,3.0,49,0.00,,,0.00,0.0,meteohub,2013-03-26 02:42:00,
2013-03-25 22:49:00,47.8,30.6,30.00,WNW,283,0.0,3.0,51,0.00,,,0.00,0.0,meteohub,2013-03-26 02:49:00,
2013-03-25 22:55:00,47.7,30.9,30.00,WNW,283,2.0,3.0,52,0.00,,,0.00,0.0,meteohub,2013-03-26 02:55:00,
2013-03-25 23:01:00,47.5,31.3,30.01,WNW,283,0.0,3.0,53,0.00,,,0.00,0.0,meteohub,2013-03-26 03:01:00,
2013-03-25 23:07:00,47.1,30.9,30.01,WNW,283,1.0,3.0,53,0.00,,,0.00,0.0,meteohub,2013-03-26 03:07:00,
2013-03-25 23:13:00,46.9,31.1,30.02,WNW,283,0.0,2.0,54,0.00,,,0.00,0.0,meteohub,2013-03-26 03:13:00,
2013-03-25 23:20:00,46.8,31.5,30.02,WNW,283,0.0,2.0,55,0.00,,,0.00,0.0,meteohub,2013-03-26 03:20:00,
2013-03-25 23:26:00,46.4,31.6,30.02,West,276,2.0,2.0,56,0.00,,,0.00,0.0,meteohub,2013-03-26 03:26:00,
2013-03-25 23:32:00,46.4,31.1,30.03,West,277,1.0,4.0,55,0.00,,,0.00,0.0,meteohub,2013-03-26 03:32:00,
2013-03-25 23:37:00,46.4,31.1,30.02,West,275,0.0,4.0,55,0.00,,,0.00,0.0,meteohub,2013-03-26 03:37:00,
2013-03-25 23:45:00,46.6,30.7,30.03,West,279,0.0,6.0,54,0.00,,,0.00,0.0,meteohub,2013-03-26 03:45:00,
2013-03-25 23:51:00,46.6,31.3,30.03,West,266,0.0,5.0,55,0.00,,,0.00,0.0,meteohub,2013-03-26 03:51:00,
2013-03-25 23:57:00,46.8,30.9,30.03,West,279,4.0,5.0,54,0.00,,,0.00,0.0,meteohub,2013-03-26 03:57:00,